Time;durP1;ratioP1;P1;durP2;ratioP2;P2;SDS_P1;SDS_P2;PMS_P1;PMS_P2;Temp;Humidity;BMP_temperature;BMP_pressure;BME280_temperature;BME280_humidity;BME280_pressure;Samples;Min_cycle;Max_cycle;Signal;HPM_P1;HPM_P2
2023/09/01 00:02:19;;;;;;;;;2.00;1.00;;;;;;;;5062720;28;45999;-83
2023/09/01 00:04:47;;;;;;;;;1.00;1.00;;;;;;;;5075725;27;45609;-83
2023/09/01 00:07:14;;;;;;;;;1.50;0.00;;;;;;;;5074981;28;45804;-83
2023/09/01 00:09:41;;;;;;;;;1.00;1.00;;;;;;;;5077364;28;47411;-81
2023/09/01 00:12:12;;;;;;;;;2.25;1.25;;;;;;;;5078623;28;45764;-84
2023/09/01 00:14:38;;;;;;;;;1.75;1.00;;;;;;;;5072204;28;45583;-82
2023/09/01 00:17:28;;;;;;;;;1.00;1.00;;;;;;;;5070770;28;45701;-83
2023/09/01 00:19:54;;;;;;;;;1.00;1.00;;;;;;;;5062524;28;45879;-82
2023/09/01 00:22:19;;;;;;;;;2.00;2.00;;;;;;;;5074283;28;45359;-82
2023/09/01 00:24:45;;;;;;;;;1.25;1.25;;;;;;;;5076816;28;46505;-82
2023/09/01 00:27:10;;;;;;;;;1.00;1.00;;;;;;;;5079253;27;46220;-82
2023/09/01 00:32:50;;;;;;;;;2.00;1.00;;;;;;;;5017058;28;45354;-83
2023/09/01 00:35:16;;;;;;;;;2.00;0.00;;;;;;;;5056601;28;45556;-82
2023/09/01 00:37:51;;;;;;;;;1.00;0.75;;;;;;;;5083050;27;45477;-83
2023/09/01 00:40:17;;;;;;;;;1.00;1.00;;;;;;;;5074129;28;45310;-82
2023/09/01 00:42:42;;;;;;;;;1.00;0.00;;;;;;;;5066732;28;45524;-82
2023/09/01 00:45:09;;;;;;;;;4.00;2.00;;;;;;;;5075183;27;45476;-82
2023/09/01 00:47:34;;;;;;;;;1.50;0.00;;;;;;;;5073957;28;46037;-82
2023/09/01 00:50:07;;;;;;;;;1.00;1.00;;;;;;;;5075888;28;45346;-82
2023/09/01 00:52:32;;;;;;;;;2.25;2.00;;;;;;;;5067761;28;45460;-81
2023/09/01 00:54:57;;;;;;;;;3.00;1.75;;;;;;;;5062168;27;45617;-80
2023/09/01 00:57:23;;;;;;;;;3.00;2.00;;;;;;;;5077637;27;45404;-81
2023/09/01 00:59:48;;;;;;;;;1.00;1.00;;;;;;;;5075231;28;47034;-81
2023/09/01 01:02:14;;;;;;;;;2.25;1.00;;;;;;;;5090878;27;45492;-82
2023/09/01 01:04:40;;;;;;;;;2.00;1.00;;;;;;;;5082314;28;45388;-84
2023/09/01 01:07:34;;;;;;;;;1.25;0.50;;;;;;;;5084921;28;45196;-84
2023/09/01 01:10:14;;;;;;;;;2.00;1.25;;;;;;;;5083559;28;46402;-85
2023/09/01 01:12:43;;;;;;;;;1.00;0.50;;;;;;;;5080423;28;46069;-82
2023/09/01 01:15:11;;;;;;;;;1.00;1.00;;;;;;;;5075747;28;45522;-85
2023/09/01 01:17:39;;;;;;;;;1.00;1.00;;;;;;;;5075332;28;45838;-85
2023/09/01 01:20:13;;;;;;;;;1.00;1.00;;;;;;;;5076004;28;45457;-83
2023/09/01 01:22:41;;;;;;;;;1.00;1.00;;;;;;;;5071359;28;45458;-82
2023/09/01 01:25:10;;;;;;;;;2.25;2.00;;;;;;;;5073279;28;45886;-84
2023/09/01 01:27:37;;;;;;;;;1.00;1.00;;;;;;;;5070650;28;46497;-83
2023/09/01 01:30:05;;;;;;;;;2.00;2.00;;;;;;;;5074046;28;47054;-84
2023/09/01 01:32:32;;;;;;;;;1.00;1.00;;;;;;;;5063096;27;45671;-85
2023/09/01 01:35:07;;;;;;;;;3.25;1.75;;;;;;;;5062812;27;45459;-83
2023/09/01 01:37:38;;;;;;;;;3.00;2.00;;;;;;;;5074348;28;45539;-82
2023/09/01 01:40:05;;;;;;;;;1.00;1.00;;;;;;;;5074579;28;45811;-85
2023/09/01 01:42:33;;;;;;;;;4.50;1.00;;;;;;;;5069630;27;45548;-84
2023/09/01 01:44:59;;;;;;;;;2.00;2.00;;;;;;;;5069897;28;45751;-84
2023/09/01 01:47:24;;;;;;;;;0.00;0.00;;;;;;;;5071878;28;45671;-83
2023/09/01 01:49:49;;;;;;;;;1.25;0.50;;;;;;;;5064317;28;48555;-82
2023/09/01 01:52:15;;;;;;;;;2.00;1.50;;;;;;;;5067507;27;45593;-82
2023/09/01 01:54:40;;;;;;;;;1.00;1.00;;;;;;;;5072951;28;45444;-85
2023/09/01 01:57:10;;;;;;;;;2.25;2.00;;;;;;;;5078055;27;45604;-82
2023/09/01 01:59:35;;;;;;;;;1.00;1.00;;;;;;;;5078142;28;46244;-84
2023/09/01 02:02:05;;;;;;;;;1.75;1.75;;;;;;;;5069965;27;45685;-84
2023/09/01 02:04:39;;;;;;;;;1.00;1.00;;;;;;;;5069705;28;45440;-83
2023/09/01 02:07:07;;;;;;;;;1.25;1.00;;;;;;;;5059616;28;46735;-85
2023/09/01 02:09:33;;;;;;;;;0.00;0.00;;;;;;;;5076782;28;45386;-82
2023/09/01 02:11:58;;;;;;;;;0.75;0.75;;;;;;;;5076747;27;45725;-83
2023/09/01 02:14:24;;;;;;;;;2.50;2.00;;;;;;;;5076251;28;45536;-83
2023/09/01 02:16:49;;;;;;;;;1.50;1.25;;;;;;;;5074391;28;46413;-81
2023/09/01 02:19:14;;;;;;;;;2.50;1.00;;;;;;;;5076022;28;47274;-83
2023/09/01 02:21:40;;;;;;;;;2.75;1.50;;;;;;;;5072599;28;45533;-84
2023/09/01 02:24:07;;;;;;;;;1.00;1.00;;;;;;;;5076614;28;45704;-83
2023/09/01 02:26:33;;;;;;;;;1.50;0.75;;;;;;;;5066638;27;46409;-81
2023/09/01 02:28:58;;;;;;;;;1.25;0.25;;;;;;;;5069927;27;45520;-83
2023/09/01 02:31:24;;;;;;;;;1.50;1.00;;;;;;;;5066844;28;45852;-82
2023/09/01 02:33:50;;;;;;;;;0.00;0.00;;;;;;;;5072800;27;45492;-82
2023/09/01 02:36:25;;;;;;;;;1.00;1.00;;;;;;;;5075118;28;45960;-83
2023/09/01 02:38:51;;;;;;;;;2.00;1.00;;;;;;;;5072069;27;45683;-83
2023/09/01 02:41:17;;;;;;;;;2.00;2.00;;;;;;;;5071928;28;45761;-83
2023/09/01 02:43:45;;;;;;;;;1.00;1.00;;;;;;;;5065260;27;45315;-84
2023/09/01 02:46:11;;;;;;;;;0.50;0.00;;;;;;;;5076011;27;45417;-84
2023/09/01 02:48:38;;;;;;;;;1.25;0.75;;;;;;;;5076704;27;46428;-83
2023/09/01 02:51:06;;;;;;;;;4.00;2.25;;;;;;;;5062813;28;45753;-83
2023/09/01 02:53:33;;;;;;;;;2.00;0.00;;;;;;;;5073615;28;45444;-82
2023/09/01 02:55:59;;;;;;;;;1.00;1.00;;;;;;;;5073960;28;45812;-81
2023/09/01 02:58:25;;;;;;;;;2.75;1.75;;;;;;;;5073506;27;47722;-82
2023/09/01 03:00:50;;;;;;;;;2.00;0.00;;;;;;;;5077481;27;45470;-83
2023/09/01 03:03:15;;;;;;;;;2.75;2.00;;;;;;;;5077746;28;45464;-81
2023/09/01 03:05:41;;;;;;;;;1.75;1.75;;;;;;;;5069993;28;45627;-82
2023/09/01 03:08:06;;;;;;;;;1.00;1.00;;;;;;;;5076187;28;45628;-84
2023/09/01 03:10:34;;;;;;;;;3.25;0.25;;;;;;;;5087576;28;44801;-83
2023/09/01 03:13:00;;;;;;;;;0.00;0.00;;;;;;;;5078413;28;45836;-84
2023/09/01 03:15:26;;;;;;;;;3.75;2.00;;;;;;;;5064734;28;46055;-83
2023/09/01 03:17:54;;;;;;;;;1.00;0.00;;;;;;;;5066819;28;46758;-82
2023/09/01 03:20:24;;;;;;;;;1.75;0.75;;;;;;;;5074898;27;45761;-81
2023/09/01 03:22:49;;;;;;;;;0.25;0.25;;;;;;;;5073726;28;45736;-83
2023/09/01 03:25:18;;;;;;;;;0.00;0.00;;;;;;;;5070615;28;45868;-82
2023/09/01 03:27:47;;;;;;;;;2.00;1.50;;;;;;;;5075347;27;47316;-82
2023/09/01 03:30:15;;;;;;;;;1.00;1.00;;;;;;;;5062009;27;44853;-84
2023/09/01 03:32:44;;;;;;;;;0.00;0.00;;;;;;;;5071426;28;45410;-84
2023/09/01 03:35:12;;;;;;;;;3.00;0.75;;;;;;;;5068870;28;45608;-82
2023/09/01 03:37:43;;;;;;;;;1.00;1.00;;;;;;;;5077821;28;45859;-84
2023/09/01 03:40:21;;;;;;;;;2.00;2.00;;;;;;;;5067255;28;45462;-82
2023/09/01 03:42:50;;;;;;;;;0.75;0.50;;;;;;;;5075536;27;45776;-85
2023/09/01 03:45:15;;;;;;;;;1.00;1.00;;;;;;;;5073737;28;45696;-82
2023/09/01 03:57:04;;;;;;;;;1.75;1.00;;;;;;;;5009585;28;45468;-84
2023/09/01 03:59:31;;;;;;;;;0.00;0.00;;;;;;;;4994367;28;45910;-84
2023/09/01 04:02:01;;;;;;;;;4.75;1.50;;;;;;;;4998787;28;45786;-86
2023/09/01 04:04:35;;;;;;;;;2.75;1.00;;;;;;;;4996636;28;45502;-85
2023/09/01 04:07:13;;;;;;;;;3.00;1.00;;;;;;;;5038428;28;45761;-88
2023/09/01 04:09:58;;;;;;;;;0.75;0.75;;;;;;;;5079948;28;45531;-84
2023/09/01 04:12:35;;;;;;;;;1.00;1.00;;;;;;;;5065079;28;45409;-85
2023/09/01 04:15:55;;;;;;;;;;;;;;;;;;;;;
2023/09/01 04:18:32;;;;;;;;;1.00;1.00;;;;;;;;5079402;28;45705;-85
2023/09/01 04:21:10;;;;;;;;;0.00;0.00;;;;;;;;4979758;28;45475;-85
2023/09/01 04:24:12;;;;;;;;;;;;;;;;;;;;;
2023/09/01 04:26:56;;;;;;;;;0.50;0.50;;;;;;;;5029017;28;68187;-84
2023/09/01 04:29:24;;;;;;;;;3.00;1.50;;;;;;;;5032849;28;45809;-83
2023/09/01 04:31:54;;;;;;;;;2.00;1.00;;;;;;;;5026514;28;45485;-84
2023/09/01 04:34:23;;;;;;;;;2.50;1.50;;;;;;;;5033956;28;46008;-83
2023/09/01 04:36:52;;;;;;;;;1.00;0.00;;;;;;;;5032715;28;45415;-82
2023/09/01 04:39:17;;;;;;;;;1.50;1.50;;;;;;;;5027227;28;45979;-83
2023/09/01 04:41:44;;;;;;;;;1.25;1.00;;;;;;;;5013452;28;45931;-82
2023/09/01 04:44:12;;;;;;;;;3.25;1.25;;;;;;;;5030350;28;45588;-82
2023/09/01 04:46:40;;;;;;;;;1.25;0.75;;;;;;;;5034478;28;45847;-83
2023/09/01 04:49:23;;;;;;;;;2.00;0.00;;;;;;;;5019974;28;46930;-86
2023/09/01 04:51:51;;;;;;;;;2.00;1.00;;;;;;;;5040338;28;47145;-83
2023/09/01 04:54:27;;;;;;;;;2.00;1.00;;;;;;;;5075357;28;45405;-84
2023/09/01 04:57:18;;;;;;;;;1.75;0.75;;;;;;;;5077113;28;45786;-84
2023/09/01 04:59:45;;;;;;;;;0.50;0.50;;;;;;;;5070653;28;45685;-84
2023/09/01 05:02:10;;;;;;;;;4.00;2.00;;;;;;;;5076389;27;46441;-83
2023/09/01 05:04:37;;;;;;;;;2.50;1.25;;;;;;;;5071580;28;45462;-83
2023/09/01 05:07:02;;;;;;;;;1.75;1.50;;;;;;;;5075383;28;45699;-84
2023/09/01 05:09:28;;;;;;;;;1.00;1.00;;;;;;;;5070342;28;45483;-84
2023/09/01 05:11:54;;;;;;;;;1.50;0.75;;;;;;;;5075871;28;46498;-83
2023/09/01 05:14:20;;;;;;;;;2.00;1.00;;;;;;;;5068109;28;45868;-83
2023/09/01 05:16:45;;;;;;;;;2.50;1.50;;;;;;;;5076416;28;45439;-82
2023/09/01 05:19:11;;;;;;;;;2.00;2.00;;;;;;;;5065924;28;45792;-83
2023/09/01 05:21:36;;;;;;;;;0.75;0.75;;;;;;;;5069583;28;46472;-83
2023/09/01 05:24:02;;;;;;;;;3.00;1.50;;;;;;;;5072713;28;45832;-86
2023/09/01 05:26:28;;;;;;;;;1.00;1.00;;;;;;;;5068925;28;45437;-82
2023/09/01 05:28:53;;;;;;;;;1.00;1.00;;;;;;;;5073877;28;45916;-83
2023/09/01 05:31:20;;;;;;;;;1.75;1.50;;;;;;;;5075047;27;46208;-82
2023/09/01 05:33:47;;;;;;;;;1.00;1.00;;;;;;;;5070480;28;45816;-82
2023/09/01 05:36:13;;;;;;;;;1.00;1.00;;;;;;;;5067637;28;45425;-82
2023/09/01 05:38:39;;;;;;;;;0.00;0.00;;;;;;;;5070747;28;45485;-83
2023/09/01 05:41:05;;;;;;;;;4.00;1.00;;;;;;;;5074649;28;46265;-83
2023/09/01 05:43:31;;;;;;;;;1.50;1.00;;;;;;;;5070091;28;45773;-79
2023/09/01 05:46:03;;;;;;;;;1.00;1.00;;;;;;;;5057989;28;45520;-87
2023/09/01 05:48:29;;;;;;;;;1.25;0.00;;;;;;;;5076310;27;46539;-81
2023/09/01 05:51:01;;;;;;;;;0.00;0.00;;;;;;;;5082858;28;46474;-84
2023/09/01 05:53:27;;;;;;;;;0.50;0.50;;;;;;;;5078170;28;46581;-83
2023/09/01 05:56:17;;;;;;;;;0.00;0.00;;;;;;;;5085456;27;45193;-86
2023/09/01 05:58:50;;;;;;;;;2.00;1.00;;;;;;;;5071725;27;45467;-86
2023/09/01 06:01:16;;;;;;;;;2.25;1.00;;;;;;;;5072896;28;47027;-84
2023/09/01 06:03:42;;;;;;;;;2.75;1.00;;;;;;;;5074417;28;45497;-85
2023/09/01 06:06:07;;;;;;;;;0.50;0.50;;;;;;;;5069965;28;45784;-84
2023/09/01 06:08:33;;;;;;;;;3.25;0.00;;;;;;;;5070255;28;46089;-80
2023/09/01 06:11:05;;;;;;;;;1.50;1.50;;;;;;;;5068517;28;46558;-82
2023/09/01 06:13:50;;;;;;;;;1.00;1.00;;;;;;;;5063182;28;45819;-86
2023/09/01 06:16:15;;;;;;;;;1.00;1.00;;;;;;;;5079629;27;45948;-79
2023/09/01 06:18:41;;;;;;;;;1.00;1.00;;;;;;;;5070713;28;45817;-83
2023/09/01 06:21:06;;;;;;;;;1.00;0.00;;;;;;;;5068608;28;46506;-83
2023/09/01 06:23:35;;;;;;;;;2.00;1.00;;;;;;;;5065738;28;45857;-84
2023/09/01 06:26:03;;;;;;;;;1.25;1.25;;;;;;;;5072598;28;45572;-85
2023/09/01 06:28:29;;;;;;;;;1.00;1.00;;;;;;;;5069819;28;47712;-83
2023/09/01 06:30:57;;;;;;;;;1.25;1.00;;;;;;;;5077657;27;45454;-85
2023/09/01 06:33:28;;;;;;;;;1.50;1.50;;;;;;;;5088781;28;45523;-84
2023/09/01 06:36:14;;;;;;;;;3.00;1.00;;;;;;;;5079476;28;45676;-83
2023/09/01 06:38:42;;;;;;;;;0.75;0.00;;;;;;;;5080787;28;45923;-81
2023/09/01 06:41:10;;;;;;;;;0.25;0.25;;;;;;;;5075821;27;45675;-81
2023/09/01 06:43:38;;;;;;;;;0.00;0.00;;;;;;;;5075642;28;45487;-82
2023/09/01 06:46:06;;;;;;;;;2.25;0.00;;;;;;;;5081236;27;45405;-83
2023/09/01 06:48:35;;;;;;;;;2.00;0.00;;;;;;;;5072573;28;45889;-84
2023/09/01 06:51:03;;;;;;;;;1.00;1.00;;;;;;;;5072917;28;47663;-83
2023/09/01 06:53:39;;;;;;;;;0.25;0.25;;;;;;;;5069559;28;45196;-82
2023/09/01 06:56:40;;;;;;;;;0.75;0.75;;;;;;;;5064907;28;45511;-83
2023/09/01 06:59:09;;;;;;;;;1.50;1.50;;;;;;;;5074379;27;46168;-85
2023/09/01 07:01:37;;;;;;;;;1.75;1.75;;;;;;;;5079722;27;45520;-87
2023/09/01 07:04:05;;;;;;;;;1.00;0.00;;;;;;;;5083153;28;45492;-86
2023/09/01 07:06:31;;;;;;;;;0.75;0.75;;;;;;;;5083235;28;44788;-87
2023/09/01 07:09:00;;;;;;;;;3.00;2.00;;;;;;;;5085267;27;45990;-88
2023/09/01 07:11:30;;;;;;;;;1.25;1.25;;;;;;;;5087311;27;47022;-90
2023/09/01 07:13:56;;;;;;;;;0.00;0.00;;;;;;;;5082540;27;45335;-86
2023/09/01 07:16:24;;;;;;;;;0.25;0.25;;;;;;;;5072931;28;45477;-90
2023/09/01 07:18:53;;;;;;;;;2.50;0.75;;;;;;;;5080907;28;45773;-89
2023/09/01 07:21:21;;;;;;;;;1.00;0.00;;;;;;;;5077623;28;45817;-87
2023/09/01 07:23:53;;;;;;;;;11.75;9.00;;;;;;;;5072530;28;45455;-88
2023/09/01 07:26:19;;;;;;;;;3.50;2.25;;;;;;;;5094781;27;45830;-87
2023/09/01 07:28:45;;;;;;;;;6.25;5.75;;;;;;;;5076404;28;45020;-87
2023/09/01 07:31:12;;;;;;;;;24.67;23.33;;;;;;;;5070293;27;45844;-84
2023/09/01 07:33:41;;;;;;;;;1.25;1.25;;;;;;;;5074657;28;45716;-83
2023/09/01 07:36:07;;;;;;;;;1.00;1.00;;;;;;;;5070601;28;45693;-86
2023/09/01 07:38:39;;;;;;;;;0.75;0.75;;;;;;;;5079714;27;46154;-86
2023/09/01 07:41:07;;;;;;;;;0.25;0.25;;;;;;;;5073241;27;47772;-85
2023/09/01 07:43:33;;;;;;;;;0.50;0.00;;;;;;;;5068275;28;45306;-85
2023/09/01 07:46:00;;;;;;;;;0.25;0.25;;;;;;;;5076620;28;45694;-84
2023/09/01 07:48:26;;;;;;;;;0.00;0.00;;;;;;;;5069442;27;46278;-85
2023/09/01 07:50:51;;;;;;;;;0.50;0.50;;;;;;;;5066138;27;47627;-85
2023/09/01 07:53:17;;;;;;;;;0.00;0.00;;;;;;;;5068921;27;45674;-85
2023/09/01 07:55:43;;;;;;;;;1.00;0.25;;;;;;;;5068710;28;45495;-86
2023/09/01 07:58:12;;;;;;;;;4.00;1.00;;;;;;;;5072943;28;45633;-85
2023/09/01 08:00:38;;;;;;;;;0.25;0.25;;;;;;;;5076439;27;46280;-83
2023/09/01 08:03:05;;;;;;;;;0.00;0.00;;;;;;;;5078842;27;45768;-85
2023/09/01 08:05:32;;;;;;;;;0.00;0.00;;;;;;;;5076725;27;44795;-86
2023/09/01 08:08:00;;;;;;;;;0.25;0.25;;;;;;;;5071707;27;45416;-85
2023/09/01 08:10:27;;;;;;;;;0.75;0.75;;;;;;;;5078847;27;46495;-84
2023/09/01 08:12:55;;;;;;;;;0.00;0.00;;;;;;;;5074409;28;45762;-84
2023/09/01 08:15:21;;;;;;;;;1.00;1.00;;;;;;;;5075425;27;45394;-83
2023/09/01 08:17:49;;;;;;;;;0.25;0.25;;;;;;;;5074931;28;45722;-84
2023/09/01 08:20:25;;;;;;;;;0.00;0.00;;;;;;;;5066805;28;45417;-83
2023/09/01 08:22:51;;;;;;;;;1.80;0.00;;;;;;;;5072378;27;45246;-84
2023/09/01 08:25:17;;;;;;;;;0.00;0.00;;;;;;;;5072861;28;45611;-83
2023/09/01 08:27:48;;;;;;;;;0.00;0.00;;;;;;;;5079058;27;46773;-85
2023/09/01 08:30:14;;;;;;;;;1.20;0.00;;;;;;;;5079545;28;47554;-85
2023/09/01 08:32:49;;;;;;;;;1.00;1.00;;;;;;;;5076512;28;45470;-83
2023/09/01 08:35:14;;;;;;;;;0.00;0.00;;;;;;;;5072806;27;45477;-81
2023/09/01 08:37:40;;;;;;;;;2.75;1.75;;;;;;;;5074191;28;45591;-81
2023/09/01 08:40:13;;;;;;;;;5.75;5.00;;;;;;;;5076267;28;47052;-87
2023/09/01 08:42:46;;;;;;;;;1.00;0.20;;;;;;;;5073041;27;45407;-87
2023/09/01 08:45:21;;;;;;;;;1.25;1.25;;;;;;;;5077537;28;45104;-89
2023/09/01 08:48:03;;;;;;;;;0.75;0.00;;;;;;;;5083654;27;45514;-88
2023/09/01 08:50:29;;;;;;;;;0.20;0.20;;;;;;;;5085542;27;47294;-88
2023/09/01 08:56:04;;;;;;;;;3.80;2.00;;;;;;;;5071125;27;45448;-86
2023/09/01 08:58:36;;;;;;;;;3.25;1.75;;;;;;;;5074526;28;45343;-85
2023/09/01 09:01:03;;;;;;;;;2.75;2.75;;;;;;;;5075705;27;46345;-82
2023/09/01 09:03:29;;;;;;;;;0.40;0.40;;;;;;;;5075451;28;45515;-86
2023/09/01 09:05:58;;;;;;;;;1.00;1.00;;;;;;;;5075912;28;45798;-83
2023/09/01 09:08:23;;;;;;;;;0.00;0.00;;;;;;;;5069269;28;46028;-86
2023/09/01 09:10:49;;;;;;;;;1.00;1.00;;;;;;;;5066355;28;47985;-81
2023/09/01 09:13:22;;;;;;;;;0.00;0.00;;;;;;;;5081153;27;45372;-85
2023/09/01 09:16:06;;;;;;;;;0.60;0.00;;;;;;;;5086322;28;45849;-85
2023/09/01 09:18:32;;;;;;;;;2.40;1.00;;;;;;;;5085783;28;46071;-86
2023/09/01 09:20:58;;;;;;;;;1.00;1.00;;;;;;;;5083783;28;47358;-86
2023/09/01 09:23:46;;;;;;;;;1.60;1.00;;;;;;;;5075490;28;45452;-84
2023/09/01 09:26:13;;;;;;;;;2.00;0.00;;;;;;;;5081056;27;45581;-87
2023/09/01 09:28:39;;;;;;;;;1.25;1.25;;;;;;;;5083483;28;45419;-83
2023/09/01 09:31:05;;;;;;;;;0.75;0.75;;;;;;;;5077101;28;45458;-86
2023/09/01 09:33:31;;;;;;;;;1.25;0.25;;;;;;;;5072198;27;45768;-85
2023/09/01 09:35:57;;;;;;;;;1.00;1.00;;;;;;;;5076294;28;45536;-87
2023/09/01 09:38:22;;;;;;;;;3.50;2.25;;;;;;;;5069867;28;46173;-84
2023/09/01 09:41:01;;;;;;;;;1.00;1.00;;;;;;;;5074508;27;46348;-85
2023/09/01 09:43:27;;;;;;;;;1.20;0.80;;;;;;;;5077105;28;45743;-86
2023/09/01 09:45:53;;;;;;;;;1.00;1.00;;;;;;;;5075712;27;45408;-85
2023/09/01 09:48:19;;;;;;;;;1.00;0.75;;;;;;;;5076332;28;45444;-82
2023/09/01 09:50:46;;;;;;;;;1.00;1.00;;;;;;;;5072300;27;45479;-85
2023/09/01 09:53:15;;;;;;;;;1.40;0.40;;;;;;;;5067533;28;45778;-85
2023/09/01 09:56:04;;;;;;;;;1.60;0.20;;;;;;;;5076701;27;45548;-85
2023/09/01 09:58:54;;;;;;;;;;;;;;;;;;;;;
2023/09/01 10:01:24;;;;;;;;;1.00;1.00;;;;;;;;5076620;27;74901;-84
2023/09/01 10:03:54;;;;;;;;;0.00;0.00;;;;;;;;5078193;28;45406;-86
2023/09/01 10:06:19;;;;;;;;;3.25;1.75;;;;;;;;5082353;27;45555;-86
2023/09/01 10:09:16;;;;;;;;;0.75;0.75;;;;;;;;5087426;27;45488;-86
2023/09/01 10:11:43;;;;;;;;;0.80;0.80;;;;;;;;5078518;28;47333;-86
2023/09/01 10:14:10;;;;;;;;;0.80;0.20;;;;;;;;5080654;27;45472;-85
2023/09/01 10:16:37;;;;;;;;;2.00;2.00;;;;;;;;5080307;27;44838;-88
2023/09/01 10:19:04;;;;;;;;;0.50;0.50;;;;;;;;5081012;28;47055;-85
2023/09/01 10:21:29;;;;;;;;;7.25;7.25;;;;;;;;5067760;28;48399;-86
2023/09/01 10:23:54;;;;;;;;;1.25;1.00;;;;;;;;5079692;27;45511;-83
2023/09/01 10:26:28;;;;;;;;;2.50;1.00;;;;;;;;5077041;28;45066;-83
2023/09/01 10:29:06;;;;;;;;;3.50;1.75;;;;;;;;5076141;28;45482;-87
2023/09/01 10:31:36;;;;;;;;;1.75;1.75;;;;;;;;5082612;27;45536;-87
2023/09/01 10:34:05;;;;;;;;;0.60;0.60;;;;;;;;5080442;27;45428;-86
2023/09/01 10:36:31;;;;;;;;;2.50;2.00;;;;;;;;5082552;28;45875;-88
2023/09/01 10:39:03;;;;;;;;;0.00;0.00;;;;;;;;5080035;27;45761;-87
2023/09/01 10:41:47;;;;;;;;;1.60;1.60;;;;;;;;5073209;28;46997;-85
2023/09/01 10:44:18;;;;;;;;;1.00;0.40;;;;;;;;5077845;28;45722;-84
2023/09/01 10:46:50;;;;;;;;;0.25;0.00;;;;;;;;5077728;28;45423;-83
2023/09/01 10:49:34;;;;;;;;;0.25;0.25;;;;;;;;5087430;28;45201;-86
2023/09/01 10:52:20;;;;;;;;;3.00;0.75;;;;;;;;5076092;28;47023;-81
2023/09/01 10:55:14;;;;;;;;;0.20;0.20;;;;;;;;5081965;28;45504;-89
2023/09/01 10:57:48;;;;;;;;;1.00;0.00;;;;;;;;5079691;27;45433;-88
2023/09/01 11:00:34;;;;;;;;;0.75;0.75;;;;;;;;5072780;28;47115;-85
2023/09/01 11:07:14;;;;;;;;;0.00;0.00;;;;;;;;5086345;28;44852;-80
2023/09/01 11:10:22;;;;;;;;;0.00;0.00;;;;;;;;5014610;28;44876;-85
2023/09/01 11:12:59;;;;;;;;;2.75;2.00;;;;;;;;5012433;28;45345;-85
2023/09/01 11:15:24;;;;;;;;;2.75;2.00;;;;;;;;5026856;28;46451;-82
2023/09/01 11:17:49;;;;;;;;;6.00;5.75;;;;;;;;5018324;28;44792;-82
2023/09/01 11:20:19;;;;;;;;;5.50;5.50;;;;;;;;5026073;28;47339;-80
2023/09/01 11:22:44;;;;;;;;;6.00;4.25;;;;;;;;5030605;28;44855;-82
2023/09/01 11:25:12;;;;;;;;;15.25;11.75;;;;;;;;5086653;28;45386;-81
2023/09/01 11:27:41;;;;;;;;;34.33;32.33;;;;;;;;5085020;28;45377;-82
2023/09/01 11:30:09;;;;;;;;;15.00;14.75;;;;;;;;5079779;28;45505;-82
2023/09/01 11:32:35;;;;;;;;;13.50;12.50;;;;;;;;5080242;28;46327;-86
2023/09/01 11:35:03;;;;;;;;;5.50;4.25;;;;;;;;5079641;28;46129;-81
2023/09/01 11:37:40;;;;;;;;;34.00;31.67;;;;;;;;5081083;27;45287;-88
2023/09/01 11:40:12;;;;;;;;;17.25;14.75;;;;;;;;5085908;27;45079;-84
2023/09/01 11:42:38;;;;;;;;;14.00;14.00;;;;;;;;5068897;28;46019;-82
2023/09/01 11:45:13;;;;;;;;;3.75;2.25;;;;;;;;5084333;28;47213;-84
2023/09/01 11:47:41;;;;;;;;;7.75;7.75;;;;;;;;5082995;28;45401;-83
2023/09/01 11:50:12;;;;;;;;;11.25;6.50;;;;;;;;5083371;28;44838;-82
2023/09/01 11:53:34;;;;;;;;;9.00;9.00;;;;;;;;5079629;28;47083;-82
2023/09/01 11:56:00;;;;;;;;;5.00;3.50;;;;;;;;5081434;28;45911;-82
2023/09/01 11:58:46;;;;;;;;;7.50;7.50;;;;;;;;5081297;28;45582;-82
2023/09/01 12:01:17;;;;;;;;;1.00;0.00;;;;;;;;5080879;27;45440;-82
2023/09/01 12:03:46;;;;;;;;;1.25;1.25;;;;;;;;5074677;28;45671;-83
2023/09/01 12:06:22;;;;;;;;;3.00;1.00;;;;;;;;5076590;28;46477;-83
2023/09/01 12:09:35;;;;;;;;;0.20;0.20;;;;;;;;5086657;27;45350;-86
2023/09/01 12:12:00;;;;;;;;;2.00;2.00;;;;;;;;5075918;28;45350;-80
2023/09/01 12:14:29;;;;;;;;;1.00;0.00;;;;;;;;5079055;28;45470;-83
2023/09/01 12:17:17;;;;;;;;;2.00;2.00;;;;;;;;5077654;28;47009;-79
2023/09/01 12:19:47;;;;;;;;;0.60;0.60;;;;;;;;5080825;28;45476;-82
2023/09/01 12:22:16;;;;;;;;;0.60;0.60;;;;;;;;5081344;27;45689;-82
2023/09/01 12:25:03;;;;;;;;;5.00;2.00;;;;;;;;5082625;28;45491;-81
2023/09/01 12:27:34;;;;;;;;;0.20;0.20;;;;;;;;5078917;27;45919;-81
2023/09/01 12:30:00;;;;;;;;;1.00;0.75;;;;;;;;5074136;27;45789;-79
2023/09/01 12:32:27;;;;;;;;;0.00;0.00;;;;;;;;5086046;28;45569;-82
2023/09/01 12:35:38;;;;;;;;;1.40;0.60;;;;;;;;5078761;27;45532;-82
2023/09/01 12:38:25;;;;;;;;;4.00;2.00;;;;;;;;5068685;28;46000;-85
2023/09/01 12:56:37;;;;;;;;;0.00;0.00;;;;;;;;5098111;22;46269;-76
2023/09/01 12:59:02;;;;;;;;;0.75;0.75;;;;;;;;5080384;27;45805;-74
2023/09/01 13:01:27;;;;;;;;;2.00;1.00;;;;;;;;5082149;27;47653;-77
2023/09/01 13:03:53;;;;;;;;;2.00;0.00;;;;;;;;5081386;27;45695;-75
2023/09/01 13:06:18;;;;;;;;;1.00;1.00;;;;;;;;5089982;27;45336;-75
2023/09/01 13:08:43;;;;;;;;;2.25;1.00;;;;;;;;5089162;27;45516;-75
2023/09/01 13:11:32;;;;;;;;;1.00;1.00;;;;;;;;5091794;27;46225;-78
2023/09/01 13:14:27;;;;;;;;;0.00;0.00;;;;;;;;5057256;27;45508;-76
2023/09/01 13:19:59;;;;;;;;;0.00;0.00;;;;;;;;5084669;27;45617;-76
2023/09/01 13:22:26;;;;;;;;;2.00;1.00;;;;;;;;5085846;27;45445;-75
2023/09/01 13:24:52;;;;;;;;;4.25;2.25;;;;;;;;5081556;27;45695;-76
2023/09/01 13:27:17;;;;;;;;;1.75;1.00;;;;;;;;5091414;27;45398;-74
2023/09/01 13:29:48;;;;;;;;;4.00;2.00;;;;;;;;5086412;27;47035;-78
2023/09/01 13:32:21;;;;;;;;;3.75;1.50;;;;;;;;5088392;27;45843;-75
2023/09/01 13:35:28;;;;;;;;;;;;;;;;;;;;;
2023/09/01 13:44:46;;;;;;;;;4.50;3.25;;;;;;;;5094026;27;45866;-74
2023/09/01 13:50:19;;;;;;;;;2.50;2.00;;;;;;;;5058207;27;45696;-70
2023/09/01 13:52:45;;;;;;;;;2.75;1.00;;;;;;;;5087505;27;45827;-72
2023/09/01 13:55:10;;;;;;;;;0.25;0.25;;;;;;;;5087568;27;46976;-73
2023/09/01 14:01:02;;;;;;;;;3.25;1.00;;;;;;;;5024685;28;45816;-72
2023/09/01 14:03:28;;;;;;;;;2.00;1.00;;;;;;;;5085186;27;45792;-70
2023/09/01 14:05:53;;;;;;;;;1.25;1.25;;;;;;;;5085284;27;45436;-73
2023/09/01 14:11:36;;;;;;;;;2.00;2.00;;;;;;;;5069352;27;45901;-72
2023/09/01 14:14:02;;;;;;;;;1.00;1.00;;;;;;;;5090128;27;45726;-71
2023/09/01 14:16:27;;;;;;;;;2.00;2.00;;;;;;;;5080314;27;47030;-70
2023/09/01 14:18:53;;;;;;;;;5.50;3.25;;;;;;;;5092849;27;45812;-71
2023/09/01 14:21:18;;;;;;;;;2.25;2.25;;;;;;;;5088732;27;45860;-72
2023/09/01 14:23:43;;;;;;;;;1.00;1.00;;;;;;;;5094413;27;45682;-72
2023/09/01 14:26:09;;;;;;;;;1.00;1.00;;;;;;;;5087475;27;45807;-71
2023/09/01 14:28:37;;;;;;;;;1.25;1.25;;;;;;;;5089435;27;45773;-71
2023/09/01 14:31:05;;;;;;;;;1.50;1.50;;;;;;;;5081020;27;45545;-71
2023/09/01 14:33:32;;;;;;;;;1.00;1.00;;;;;;;;5084651;27;45827;-72
2023/09/01 14:35:57;;;;;;;;;4.00;4.00;;;;;;;;5077508;27;45473;-71
2023/09/01 14:38:23;;;;;;;;;2.00;2.00;;;;;;;;5089605;27;45507;-70
2023/09/01 14:40:50;;;;;;;;;4.50;2.50;;;;;;;;5095161;27;45462;-72
2023/09/01 14:43:16;;;;;;;;;4.50;3.00;;;;;;;;5087907;27;45591;-71
2023/09/01 14:45:41;;;;;;;;;1.00;1.00;;;;;;;;5092431;27;45537;-71
2023/09/01 14:48:06;;;;;;;;;0.00;0.00;;;;;;;;5093921;27;45375;-71
2023/09/01 14:51:18;;;;;;;;;2.50;2.00;;;;;;;;5097015;27;45467;-72
2023/09/01 14:53:41;;;;;;;;;0.00;0.00;;;;;;;;5095263;27;45819;-71
2023/09/01 14:56:42;;;;;;;;;1.00;0.00;;;;;;;;5090934;27;45641;-72
2023/09/01 14:59:12;;;;;;;;;5.00;3.75;;;;;;;;5055856;27;46183;-71
2023/09/01 15:01:47;;;;;;;;;5.00;3.00;;;;;;;;5088698;27;45438;-72
2023/09/01 15:04:43;;;;;;;;;4.75;4.25;;;;;;;;5098239;27;45366;-72
2023/09/01 15:07:20;;;;;;;;;0.00;0.00;;;;;;;;5089351;27;46138;-71
2023/09/01 15:09:54;;;;;;;;;2.00;0.80;;;;;;;;5096494;27;45915;-70
2023/09/01 15:12:39;;;;;;;;;2.00;2.00;;;;;;;;5098923;27;45533;-73
2023/09/01 15:15:12;;;;;;;;;2.75;2.25;;;;;;;;5096875;27;45695;-72
2023/09/01 15:17:40;;;;;;;;;1.75;0.50;;;;;;;;5084652;27;45592;-73
2023/09/01 15:23:15;;;;;;;;;1.00;0.00;;;;;;;;5012704;28;45693;-71
2023/09/01 15:25:45;;;;;;;;;0.75;0.75;;;;;;;;5082494;27;45569;-72
2023/09/01 15:28:31;;;;;;;;;2.00;1.00;;;;;;;;5095801;27;45637;-72
2023/09/01 15:30:56;;;;;;;;;1.00;1.00;;;;;;;;5091432;27;45557;-73
2023/09/01 15:40:08;;;;;;;;;0.50;0.50;;;;;;;;5015399;28;45736;-75
2023/09/01 15:48:55;;;;;;;;;0.00;0.00;;;;;;;;5010517;28;45948;-75
2023/09/01 15:55:06;;;;;;;;;;;;;;;;;;;;;
2023/09/01 15:58:03;;;;;;;;;0.00;0.00;;;;;;;;4992636;28;67891;-74
2023/09/01 16:00:29;;;;;;;;;1.00;1.00;;;;;;;;4985760;28;45808;-75
2023/09/01 16:09:03;;;;;;;;;1.00;1.00;;;;;;;;5041237;28;45553;-75
2023/09/01 16:11:28;;;;;;;;;0.50;0.50;;;;;;;;5030207;28;45829;-75
2023/09/01 16:13:53;;;;;;;;;1.00;1.00;;;;;;;;5049834;28;45593;-75
2023/09/01 16:19:03;;;;;;;;;1.50;1.50;;;;;;;;5049886;28;45595;-74
2023/09/01 16:21:44;;;;;;;;;;;;;;;;;;;;;
2023/09/01 16:24:10;;;;;;;;;1.75;1.75;;;;;;;;5039349;28;73869;-74
2023/09/01 16:27:07;;;;;;;;;;;;;;;;;;;;;
2023/09/01 16:29:46;;;;;;;;;1.00;1.00;;;;;;;;5036131;28;68936;-75
2023/09/01 16:32:38;;;;;;;;;1.00;1.00;;;;;;;;5049431;28;45888;-73
2023/09/01 16:35:15;;;;;;;;;0.00;0.00;;;;;;;;5033600;28;47050;-77